Time;durP1;ratioP1;P1;durP2;ratioP2;P2;SDS_P1;SDS_P2;PMS_P1;PMS_P2;Temp;Humidity;BMP_temperature;BMP_pressure;BME280_temperature;BME280_humidity;BME280_pressure;Samples;Min_cycle;Max_cycle;Signal;HPM_P1;HPM_P2
2022/07/11 00:00:50;;;;;;;20.50;18.70;;;;;;;12.62;100.00;99167.41;2083199;28;20215;-75
2022/07/11 00:01:52;;;;;;;21.37;19.37;;;;;;;12.58;100.00;99171.78;2083221;28;20192;-75
2022/07/11 00:02:53;;;;;;;19.83;17.98;;;;;;;12.58;100.00;99179.81;2082750;28;20206;-75
2022/07/11 00:03:56;;;;;;;20.00;18.40;;;;;;;12.64;100.00;99175.91;2082590;28;20227;-75
2022/07/11 00:04:57;;;;;;;20.30;18.50;;;;;;;12.60;100.00;99164.25;2082487;28;20297;-75
2022/07/11 00:05:58;;;;;;;21.30;19.13;;;;;;;12.65;100.00;99172.94;2081772;28;20261;-75
2022/07/11 00:07:00;;;;;;;21.38;19.30;;;;;;;12.61;100.00;99176.53;2082861;28;20259;-75
2022/07/11 00:08:06;;;;;;;21.85;19.65;;;;;;;12.57;100.00;99172.88;2083142;28;20184;-75
2022/07/11 00:09:07;;;;;;;21.15;19.30;;;;;;;12.56;100.00;99173.97;2083156;28;20200;-75
2022/07/11 00:10:10;;;;;;;21.40;19.37;;;;;;;12.55;100.00;99167.06;2083110;28;20203;-75
2022/07/11 00:11:12;;;;;;;24.25;19.85;;;;;;;12.53;100.00;99162.00;2083343;28;20191;-75
2022/07/11 00:12:13;;;;;;;21.80;19.77;;;;;;;12.56;100.00;99161.38;2082483;28;20191;-75
2022/07/11 00:13:14;;;;;;;21.23;19.23;;;;;;;12.53;100.00;99164.69;2082370;28;20964;-76
2022/07/11 00:14:16;;;;;;;22.40;20.17;;;;;;;12.54;100.00;99170.81;2082368;28;20591;-76
2022/07/11 00:15:16;;;;;;;22.13;19.85;;;;;;;12.56;100.00;99176.66;2082546;28;20207;-75
2022/07/11 00:16:20;;;;;;;22.23;19.80;;;;;;;12.50;100.00;99177.88;2083042;28;20686;-75
2022/07/11 00:17:22;;;;;;;21.67;19.52;;;;;;;12.49;100.00;99179.75;2082406;28;20223;-75
2022/07/11 00:18:25;;;;;;;22.65;19.98;;;;;;;12.50;100.00;99167.16;2082345;28;20298;-75
2022/07/11 00:19:26;;;;;;;21.80;19.77;;;;;;;12.49;100.00;99170.94;2081970;28;20222;-75
2022/07/11 00:20:27;;;;;;;21.27;19.30;;;;;;;12.50;100.00;99167.16;2074179;28;20192;-75
2022/07/11 00:21:28;;;;;;;23.48;20.48;;;;;;;12.52;100.00;99175.69;2081237;28;20239;-75
2022/07/11 00:22:32;;;;;;;22.27;20.00;;;;;;;12.53;100.00;99169.25;2082459;28;20191;-76
2022/07/11 00:23:36;;;;;;;22.15;20.10;;;;;;;12.56;100.00;99168.63;2082439;28;20188;-76
2022/07/11 00:24:40;;;;;;;21.73;19.67;;;;;;;12.57;100.00;99170.19;2082983;28;20669;-75
2022/07/11 00:25:40;;;;;;;23.08;20.63;;;;;;;12.58;100.00;99177.13;2082262;28;20198;-75
2022/07/11 00:26:42;;;;;;;23.23;19.87;;;;;;;12.57;100.00;99179.03;2082442;28;20263;-76
2022/07/11 00:27:42;;;;;;;21.75;19.65;;;;;;;12.57;100.00;99172.88;2083205;28;20183;-75
2022/07/11 00:28:44;;;;;;;22.70;20.40;;;;;;;12.56;100.00;99168.63;2082295;28;20207;-76
2022/07/11 00:29:47;;;;;;;23.20;20.10;;;;;;;12.58;100.00;99169.09;2082483;28;20226;-75
2022/07/11 00:30:52;;;;;;;20.80;19.10;;;;;;;12.61;100.00;99171.19;2082201;28;20783;-75
2022/07/11 00:31:53;;;;;;;21.00;19.08;;;;;;;12.59;100.00;99168.78;2082403;28;20224;-76
2022/07/11 00:32:54;;;;;;;23.60;19.70;;;;;;;12.61;100.00;99163.16;2083084;28;20666;-75
2022/07/11 00:33:55;;;;;;;21.10;19.33;;;;;;;12.59;100.00;99165.31;2082925;28;20674;-76
2022/07/11 00:34:57;;;;;;;21.05;19.02;;;;;;;12.60;100.00;99166.94;2083030;28;20234;-76
2022/07/11 00:35:58;;;;;;;20.92;19.00;;;;;;;12.59;100.00;99166.13;2082456;28;20272;-76
2022/07/11 00:36:59;;;;;;;20.73;18.87;;;;;;;12.59;100.00;99166.13;2083202;28;20180;-75
2022/07/11 00:38:01;;;;;;;20.98;18.90;;;;;;;12.57;100.00;99159.50;2082251;28;20200;-76
2022/07/11 00:39:05;;;;;;;20.52;18.63;;;;;;;12.58;100.00;99158.41;2074323;28;20547;-75
2022/07/11 00:40:06;;;;;;;22.60;19.63;;;;;;;12.56;100.00;99164.06;2082248;28;20229;-75
2022/07/11 00:41:08;;;;;;;22.02;19.73;;;;;;;12.56;100.00;99164.06;2074126;28;20255;-75
2022/07/11 00:42:10;;;;;;;21.63;19.67;;;;;;;12.54;100.00;99165.47;2082291;28;20199;-76
2022/07/11 00:43:11;;;;;;;22.00;19.75;;;;;;;12.54;100.00;99168.94;2082857;28;20659;-76
2022/07/11 00:44:14;;;;;;;21.10;18.98;;;;;;;12.55;100.00;99164.38;2082783;28;20191;-75
2022/07/11 00:45:16;;;;;;;21.33;19.27;;;;;;;12.56;100.00;99171.31;2082839;28;20188;-76
2022/07/11 00:46:17;;;;;;;21.00;18.75;;;;;;;12.56;100.00;99168.63;2082130;28;20252;-75
2022/07/11 00:47:19;;;;;;;21.17;19.27;;;;;;;12.57;100.00;99173.66;2082250;28;20188;-75
2022/07/11 00:48:19;;;;;;;20.42;18.73;;;;;;;12.58;100.00;99164.53;2082905;28;20230;-76
2022/07/11 00:49:21;;;;;;;21.43;19.23;;;;;;;12.59;100.00;99174.16;2082130;28;20202;-75
2022/07/11 00:50:24;;;;;;;21.25;19.25;;;;;;;12.61;100.00;99163.16;2082239;28;20653;-75
2022/07/11 00:51:27;;;;;;;19.85;18.05;;;;;;;12.61;100.00;99165.84;2081654;28;20314;-75
2022/07/11 00:52:29;;;;;;;20.42;18.67;;;;;;;12.59;100.00;99171.47;2082210;28;20214;-75
2022/07/11 00:53:31;;;;;;;21.33;19.17;;;;;;;12.56;100.00;99166.75;2082010;28;20211;-76
2022/07/11 00:54:33;;;;;;;20.25;18.60;;;;;;;12.55;100.00;99161.69;2082197;28;20196;-76
2022/07/11 00:55:34;;;;;;;20.52;18.48;;;;;;;12.55;100.00;99167.84;2083292;28;20562;-76
2022/07/11 00:56:35;;;;;;;19.98;18.17;;;;;;;12.55;100.00;99161.69;2082964;28;20642;-75
2022/07/11 00:57:39;;;;;;;20.40;18.63;;;;;;;12.54;100.00;99162.78;2083002;28;20546;-76
2022/07/11 00:58:40;;;;;;;21.10;19.15;;;;;;;12.53;100.00;99163.91;2074266;28;20287;-76
2022/07/11 00:59:42;;;;;;;20.88;18.73;;;;;;;12.56;100.00;99166.75;2082234;28;20187;-76
2022/07/11 01:00:42;;;;;;;21.13;19.13;;;;;;;12.55;100.00;99164.38;2082529;28;20242;-75
2022/07/11 01:01:44;;;;;;;21.13;19.07;;;;;;;12.55;100.00;99172.41;2082082;28;20195;-76
2022/07/11 01:02:45;;;;;;;21.02;19.23;;;;;;;12.55;100.00;99165.16;2082750;28;20241;-75
2022/07/11 01:03:48;;;;;;;21.17;19.03;;;;;;;12.52;100.00;99165.78;2082212;28;20238;-76
2022/07/11 01:04:48;;;;;;;20.30;18.48;;;;;;;12.52;100.00;99165.00;2083310;28;20270;-75
2022/07/11 01:05:51;;;;;;;20.77;18.87;;;;;;;12.54;100.00;99168.94;2083428;28;20201;-75
2022/07/11 01:06:53;;;;;;;20.90;18.85;;;;;;;12.54;100.00;99170.81;2082594;28;20219;-75
2022/07/11 01:07:54;;;;;;;21.58;19.40;;;;;;;12.52;100.00;99167.66;2082601;28;20200;-76
2022/07/11 01:08:56;;;;;;;21.13;19.13;;;;;;;12.53;100.00;99172.72;2083427;28;20190;-75
2022/07/11 01:09:58;;;;;;;20.85;19.05;;;;;;;12.53;100.00;99177.28;2082427;28;20763;-75
2022/07/11 01:11:01;;;;;;;20.83;18.85;;;;;;;12.49;100.00;99168.25;2074484;28;20197;-76
2022/07/11 01:12:03;;;;;;;19.88;18.20;;;;;;;12.53;100.00;99171.94;2082099;28;20191;-75
2022/07/11 01:13:07;;;;;;;20.50;18.52;;;;;;;12.52;100.00;99173.81;2081945;28;20192;-75
2022/07/11 01:14:08;;;;;;;20.15;18.40;;;;;;;12.51;100.00;99179.44;2082559;28;20666;-76
2022/07/11 01:15:11;;;;;;;20.33;18.50;;;;;;;12.51;100.00;99176.78;2073782;28;20665;-75
2022/07/11 01:16:13;;;;;;;19.23;17.63;;;;;;;12.52;100.00;99173.03;2082577;28;20204;-75
2022/07/11 01:17:15;;;;;;;19.40;18.00;;;;;;;12.50;100.00;99172.50;2082577;28;20196;-76
2022/07/11 01:18:15;;;;;;;20.05;18.40;;;;;;;12.52;100.00;99178.38;2081925;28;20689;-76
2022/07/11 01:19:17;;;;;;;19.90;18.20;;;;;;;12.49;100.00;99178.97;2082473;28;20636;-75
2022/07/11 01:20:18;;;;;;;19.92;18.30;;;;;;;12.47;100.00;99165.09;2082547;28;20198;-76
2022/07/11 01:21:23;;;;;;;19.53;17.97;;;;;;;12.52;100.00;99173.81;2082287;28;20311;-75
2022/07/11 01:22:24;;;;;;;20.88;18.98;;;;;;;12.49;100.00;99171.72;2081873;28;20556;-75
2022/07/11 01:23:27;;;;;;;20.33;18.63;;;;;;;12.53;100.00;99179.94;2073784;28;20700;-75
2022/07/11 01:24:28;;;;;;;20.60;18.90;;;;;;;12.57;100.00;99180.91;2081900;28;20238;-75
2022/07/11 01:25:30;;;;;;;20.63;18.80;;;;;;;12.56;100.00;99176.66;2082112;28;20211;-75
2022/07/11 01:26:33;;;;;;;20.13;18.60;;;;;;;12.51;100.00;99177.59;2074069;28;20563;-75
2022/07/11 01:27:36;;;;;;;21.90;19.60;;;;;;;12.45;100.00;99171.56;2082001;28;20184;-75
2022/07/11 01:28:36;;;;;;;20.77;19.15;;;;;;;12.45;100.00;99174.25;2082100;28;20670;-76
2022/07/11 01:29:38;;;;;;;21.30;19.10;;;;;;;12.47;100.00;99178.50;2082415;28;20548;-75
2022/07/11 01:30:38;;;;;;;19.95;18.10;;;;;;;12.45;100.00;99174.25;2082461;28;20199;-76
2022/07/11 01:31:42;;;;;;;20.53;18.63;;;;;;;12.43;100.00;99183.66;2082907;28;20271;-76
2022/07/11 01:32:46;;;;;;;21.02;19.13;;;;;;;12.39;100.00;99171.97;2082436;28;20803;-75
2022/07/11 01:33:48;;;;;;;20.00;18.30;;;;;;;12.37;100.00;99166.94;2082652;28;20190;-75
2022/07/11 01:34:49;;;;;;;20.70;18.67;;;;;;;12.36;100.00;99176.06;2082981;28;20681;-75
2022/07/11 01:35:50;;;;;;;19.27;17.77;;;;;;;12.35;100.00;99176.38;2082502;28;20630;-75
2022/07/11 01:36:51;;;;;;;19.90;18.30;;;;;;;12.36;100.00;99167.25;2081942;28;20243;-75
2022/07/11 01:37:53;;;;;;;20.77;18.53;;;;;;;12.36;100.00;99177.94;2083161;28;20206;-75
2022/07/11 01:38:55;;;;;;;21.20;19.23;;;;;;;12.34;100.00;99167.56;2082433;28;20197;-75
2022/07/11 01:39:59;;;;;;;20.10;18.30;;;;;;;12.35;100.00;99166.47;2081967;28;20204;-75
2022/07/11 01:40:59;;;;;;;21.00;18.85;;;;;;;12.32;100.00;99172.41;2073813;28;20254;-75
2022/07/11 01:42:01;;;;;;;21.07;19.10;;;;;;;12.32;100.00;99172.41;2081818;28;20196;-76
2022/07/11 01:43:01;;;;;;;20.60;18.88;;;;;;;12.32;100.00;99172.41;2082982;28;20279;-76
2022/07/11 01:44:03;;;;;;;20.83;18.77;;;;;;;12.32;100.00;99171.63;2081380;28;20257;-75
2022/07/11 01:45:04;;;;;;;21.27;19.20;;;;;;;12.33;100.00;99168.63;2074116;28;20234;-75
2022/07/11 01:46:06;;;;;;;20.35;18.40;;;;;;;12.37;100.00;99166.16;2081878;28;20613;-75
2022/07/11 01:47:07;;;;;;;20.30;18.40;;;;;;;12.35;100.00;99169.13;2082411;28;20192;-75
2022/07/11 01:48:09;;;;;;;20.53;18.83;;;;;;;12.39;100.00;99172.78;2082213;28;20681;-75
2022/07/11 01:49:09;;;;;;;20.55;18.75;;;;;;;12.39;100.00;99178.13;2081718;28;20829;-75
2022/07/11 01:50:11;;;;;;;21.40;19.33;;;;;;;12.39;100.00;99172.78;2082252;28;20737;-75
2022/07/11 01:51:11;;;;;;;20.85;18.90;;;;;;;12.36;100.00;99168.03;2081263;28;20744;-75
2022/07/11 01:52:13;;;;;;;21.40;19.37;;;;;;;12.36;100.00;99172.59;2082511;28;20523;-75
2022/07/11 01:53:15;;;;;;;21.02;18.90;;;;;;;12.37;100.00;99163.47;2082891;28;20526;-76
2022/07/11 01:54:19;;;;;;;21.20;19.20;;;;;;;12.36;100.00;99169.94;2081708;28;20192;-75
2022/07/11 01:55:19;;;;;;;20.63;18.98;;;;;;;12.34;100.00;99172.91;2082145;28;20196;-76
2022/07/11 01:56:21;;;;;;;20.97;19.07;;;;;;;12.35;100.00;99171.81;2081870;28;20234;-76
2022/07/11 01:57:22;;;;;;;20.88;18.98;;;;;;;12.36;100.00;99170.72;2081359;28;20195;-75
2022/07/11 01:58:23;;;;;;;21.23;19.17;;;;;;;12.35;100.00;99166.47;2082138;28;20216;-75
2022/07/11 01:59:24;;;;;;;21.35;19.30;;;;;;;12.30;100.00;99158.53;2082504;28;20222;-76
2022/07/11 02:00:27;;;;;;;21.00;19.10;;;;;;;12.30;100.00;99169.25;2081786;28;20654;-76
2022/07/11 02:01:29;;;;;;;20.83;18.95;;;;;;;12.32;100.00;99166.25;2082241;28;20192;-75
2022/07/11 02:02:31;;;;;;;21.02;19.33;;;;;;;12.34;100.00;99169.44;2081592;28;20250;-75
2022/07/11 02:03:32;;;;;;;21.33;19.30;;;;;;;12.31;100.00;99165.47;2082293;28;20217;-75
2022/07/11 02:04:33;;;;;;;20.93;19.00;;;;;;;12.35;100.00;99168.34;2082300;28;20184;-76
2022/07/11 02:05:34;;;;;;;21.67;19.33;;;;;;;12.36;100.00;99161.91;2081649;28;20203;-75
2022/07/11 02:06:36;;;;;;;19.90;18.30;;;;;;;12.37;100.00;99164.25;2081864;28;20266;-75
2022/07/11 02:08:57;;;;;;;20.65;18.88;;;;;;;12.39;100.00;99156.72;2082994;28;20176;-76
2022/07/11 02:09:59;;;;;;;20.45;18.63;;;;;;;12.37;100.00;99164.25;2082377;28;20226;-76
2022/07/11 02:11:00;;;;;;;21.25;19.08;;;;;;;12.36;100.00;99167.25;2081417;28;20200;-76
2022/07/11 02:12:01;;;;;;;20.95;19.02;;;;;;;12.35;100.00;99160.31;2073368;28;20204;-75
2022/07/11 02:13:02;;;;;;;21.10;19.10;;;;;;;12.36;100.00;99172.59;2081650;28;20183;-76
2022/07/11 02:14:04;;;;;;;21.13;19.20;;;;;;;12.36;100.00;99162.69;2082189;28;20229;-75
2022/07/11 02:15:06;;;;;;;20.48;18.45;;;;;;;12.36;100.00;99168.03;2082222;28;20228;-75
2022/07/11 02:16:08;;;;;;;20.45;18.65;;;;;;;12.35;100.00;99166.47;2082116;28;20215;-76
2022/07/11 02:17:08;;;;;;;20.48;18.50;;;;;;;12.34;100.00;99166.78;2082410;28;20219;-76
2022/07/11 02:18:11;;;;;;;20.90;18.90;;;;;;;12.38;100.00;99171.19;2082345;28;20183;-76
2022/07/11 02:19:11;;;;;;;20.45;18.50;;;;;;;12.39;100.00;99162.06;2082352;28;20559;-75
2022/07/11 02:20:13;;;;;;;20.10;18.43;;;;;;;12.45;100.00;99168.09;2081415;28;20199;-76
2022/07/11 02:21:17;;;;;;;21.52;19.30;;;;;;;12.45;100.00;99168.88;2081012;28;20235;-75
2022/07/11 02:22:19;;;;;;;20.40;18.27;;;;;;;12.38;100.00;99163.16;2081489;28;20195;-75
2022/07/11 02:23:21;;;;;;;20.77;18.80;;;;;;;12.39;100.00;99166.63;2081620;28;20222;-75
2022/07/11 02:24:21;;;;;;;20.67;18.83;;;;;;;12.38;100.00;99168.50;2082187;28;20464;-75
2022/07/11 02:25:24;;;;;;;20.40;18.50;;;;;;;12.36;100.00;99169.94;2082193;28;20673;-75
2022/07/11 02:26:26;;;;;;;19.88;18.27;;;;;;;12.32;100.00;99155.56;2082365;28;20223;-75
2022/07/11 02:27:28;;;;;;;20.77;18.98;;;;;;;12.33;100.00;99173.97;2082113;28;20187;-75
2022/07/11 02:28:34;;;;;;;21.55;19.40;;;;;;;12.34;100.00;99158.75;2082342;28;20188;-75
2022/07/11 02:29:35;;;;;;;20.60;18.83;;;;;;;12.33;100.00;99173.97;2082140;28;20187;-76
2022/07/11 02:30:37;;;;;;;20.53;18.93;;;;;;;12.34;100.00;99170.22;2082231;28;20199;-75
2022/07/11 02:31:37;;;;;;;20.15;18.20;;;;;;;12.38;100.00;99165.84;2082242;28;20647;-75
2022/07/11 02:32:39;;;;;;;20.87;19.10;;;;;;;12.36;100.00;99173.38;2082300;28;20287;-76
2022/07/11 02:33:39;;;;;;;20.77;19.00;;;;;;;12.36;100.00;99170.72;2082135;28;20247;-76
2022/07/11 02:34:43;;;;;;;20.73;18.77;;;;;;;12.35;100.00;99171.81;2082229;28;20192;-75
2022/07/11 02:35:47;;;;;;;20.33;18.58;;;;;;;12.34;100.00;99172.91;2082118;28;20270;-76
2022/07/11 02:36:50;;;;;;;19.77;18.20;;;;;;;12.32;100.00;99172.41;2073436;28;20216;-75
2022/07/11 02:37:50;;;;;;;20.95;18.92;;;;;;;12.31;100.00;99170.81;2081603;28;20282;-76
2022/07/11 02:38:52;;;;;;;21.10;19.30;;;;;;;12.30;100.00;99177.28;2081350;28;20708;-75
2022/07/11 02:39:53;;;;;;;20.60;18.92;;;;;;;12.28;100.00;99171.44;2081597;28;20199;-75
2022/07/11 02:40:56;;;;;;;20.43;18.63;;;;;;;12.28;100.00;99170.66;2081951;28;20192;-76
2022/07/11 02:41:59;;;;;;;20.13;18.23;;;;;;;12.29;100.00;99175.69;2081732;28;20195;-76
2022/07/11 02:43:02;;;;;;;20.90;18.20;;;;;;;12.32;100.00;99175.06;2082269;28;20204;-76
2022/07/11 02:44:04;;;;;;;19.40;18.00;;;;;;;12.30;100.00;99174.59;2073536;28;20208;-75
2022/07/11 02:45:07;;;;;;;19.60;17.95;;;;;;;12.28;100.00;99181.34;2082710;28;20682;-75
2022/07/11 02:46:08;;;;;;;19.30;17.65;;;;;;;12.29;100.00;99183.72;2084333;28;20268;-75
2022/07/11 02:47:10;;;;;;;19.93;17.77;;;;;;;12.30;100.00;99176.47;2082734;28;20258;-76
2022/07/11 02:48:13;;;;;;;19.95;18.10;;;;;;;12.28;100.00;99179.47;2083768;28;20191;-76
2022/07/11 02:49:16;;;;;;;19.80;18.02;;;;;;;12.28;100.00;99174.13;2083729;28;20210;-75
2022/07/11 02:50:19;;;;;;;19.15;17.55;;;;;;;12.30;100.00;99179.16;2083755;28;20202;-75
2022/07/11 02:51:20;;;;;;;20.23;18.42;;;;;;;12.28;100.00;99176.78;2084003;28;20280;-75
2022/07/11 02:52:22;;;;;;;19.83;18.20;;;;;;;12.31;100.00;99178.06;2083895;28;20249;-75
2022/07/11 02:53:22;;;;;;;20.00;18.30;;;;;;;12.30;100.00;99177.28;2083699;28;20277;-76
2022/07/11 02:54:24;;;;;;;19.93;18.00;;;;;;;12.31;100.00;99181.53;2083250;28;20584;-75
2022/07/11 02:55:28;;;;;;;19.98;18.20;;;;;;;12.29;100.00;99178.38;2083714;28;20273;-75
2022/07/11 02:56:34;;;;;;;20.15;18.50;;;;;;;12.28;100.00;99171.44;2083716;28;20211;-75
2022/07/11 02:57:35;;;;;;;19.60;18.10;;;;;;;12.29;100.00;99173.03;2083212;28;20210;-76
2022/07/11 02:58:37;;;;;;;20.65;18.80;;;;;;;12.28;100.00;99171.44;2074714;28;20237;-76
2022/07/11 02:59:37;;;;;;;19.40;17.75;;;;;;;12.28;100.00;99170.66;2074860;28;20721;-76
2022/07/11 03:00:39;;;;;;;19.93;18.13;;;;;;;12.34;100.00;99172.13;2083043;28;20552;-75
2022/07/11 03:01:41;;;;;;;19.98;17.95;;;;;;;12.36;100.00;99175.28;2083657;28;20188;-75
2022/07/11 03:02:43;;;;;;;18.98;17.27;;;;;;;12.34;100.00;99175.59;2083586;28;20188;-75
2022/07/11 03:03:45;;;;;;;19.77;17.80;;;;;;;12.33;100.00;99168.63;2082919;28;20238;-75
2022/07/11 03:04:48;;;;;;;19.00;17.40;;;;;;;12.34;100.00;99175.59;2074952;28;20267;-76
2022/07/11 03:05:49;;;;;;;19.85;17.95;;;;;;;12.34;100.00;99172.91;2075040;28;20196;-75
2022/07/11 03:06:51;;;;;;;19.80;17.90;;;;;;;12.37;100.00;99174.97;2082376;28;20274;-76
2022/07/11 03:07:51;;;;;;;19.95;18.25;;;;;;;12.35;100.00;99174.50;2082978;28;20239;-75
2022/07/11 03:08:53;;;;;;;19.47;17.80;;;;;;;12.37;100.00;99174.19;2083065;28;20684;-75
2022/07/11 03:09:54;;;;;;;19.45;17.70;;;;;;;12.35;100.00;99177.16;2083775;28;20223;-75
2022/07/11 03:10:58;;;;;;;19.98;18.13;;;;;;;12.33;100.00;99176.66;2083711;28;20199;-75
2022/07/11 03:12:01;;;;;;;19.65;17.83;;;;;;;12.32;100.00;99176.97;2083602;28;20615;-75
2022/07/11 03:13:03;;;;;;;19.63;18.00;;;;;;;12.32;100.00;99176.97;2083741;28;20274;-76
2022/07/11 03:14:03;;;;;;;19.80;18.20;;;;;;;12.35;100.00;99166.47;2083779;28;20207;-75
2022/07/11 03:15:06;;;;;;;20.17;18.53;;;;;;;12.36;100.00;99176.06;2083749;28;20215;-75
2022/07/11 03:16:07;;;;;;;19.42;17.95;;;;;;;12.37;100.00;99177.66;2083372;28;20225;-75
2022/07/11 03:17:13;;;;;;;19.93;18.10;;;;;;;12.38;100.00;99176.53;2083300;28;20234;-76
2022/07/11 03:18:14;;;;;;;19.35;17.83;;;;;;;12.36;100.00;99170.72;2083261;28;20179;-76
2022/07/11 03:19:16;;;;;;;19.30;17.90;;;;;;;12.37;100.00;99177.66;2082866;28;20677;-76
2022/07/11 03:20:17;;;;;;;19.90;18.30;;;;;;;12.36;100.00;99180.63;2082906;28;20663;-75
2022/07/11 03:21:19;;;;;;;20.83;18.90;;;;;;;12.36;100.00;99178.75;2083203;28;20227;-75
2022/07/11 03:22:19;;;;;;;20.52;18.65;;;;;;;12.36;100.00;99181.41;2083666;28;20187;-75
2022/07/11 03:23:23;;;;;;;20.17;17.90;;;;;;;12.33;100.00;99171.31;2083729;28;20656;-75
2022/07/11 03:24:26;;;;;;;19.67;17.95;;;;;;;12.34;100.00;99180.94;2083647;28;20226;-75
2022/07/11 03:25:29;;;;;;;20.25;18.27;;;;;;;12.38;100.00;99176.53;2083467;28;20646;-75
2022/07/11 03:26:30;;;;;;;20.58;18.58;;;;;;;12.38;100.00;99178.44;2083541;28;20192;-75
2022/07/11 03:27:33;;;;;;;20.30;18.43;;;;;;;12.37;100.00;99180.31;2084022;28;20221;-75
2022/07/11 03:28:33;;;;;;;20.27;18.48;;;;;;;12.38;100.00;99184.56;2083462;28;20211;-76
2022/07/11 03:29:35;;;;;;;20.47;18.57;;;;;;;12.40;100.00;99184.25;2083775;28;20188;-75
2022/07/11 03:30:35;;;;;;;21.30;19.23;;;;;;;12.42;100.00;99182.88;2082952;28;20234;-75
2022/07/11 03:31:40;;;;;;;20.07;18.13;;;;;;;12.41;100.00;99181.28;2082829;28;20180;-76
2022/07/11 03:32:42;;;;;;;20.75;18.95;;;;;;;12.40;100.00;99181.59;2084080;28;20677;-75
2022/07/11 03:33:44;;;;;;;20.52;18.67;;;;;;;12.38;100.00;99178.44;2083533;28;20215;-75
2022/07/11 03:35:40;;;;;;;20.80;18.83;;;;;;;12.39;100.00;99178.13;2083565;28;20608;-75
2022/07/11 03:36:10;;;;;;;20.90;19.05;;;;;;;12.39;100.00;99180.00;2083168;28;20196;-75
2022/07/11 03:37:12;;;;;;;20.90;18.77;;;;;;;12.38;100.00;99181.91;2082688;28;20744;-75
2022/07/11 03:38:17;;;;;;;20.85;18.88;;;;;;;12.39;100.00;99180.00;2075099;28;20682;-75
2022/07/11 03:39:20;;;;;;;21.13;19.13;;;;;;;12.37;100.00;99171.50;2082800;28;20196;-75
2022/07/11 03:40:22;;;;;;;20.27;18.60;;;;;;;12.42;100.00;99180.22;2083737;28;20187;-75
2022/07/11 03:41:23;;;;;;;21.13;19.08;;;;;;;12.42;100.00;99179.38;2082715;28;20216;-76
2022/07/11 03:42:24;;;;;;;20.83;19.02;;;;;;;12.42;100.00;99185.56;2074477;28;20605;-76
2022/07/11 03:43:28;;;;;;;20.43;18.50;;;;;;;12.42;100.00;99187.41;2074977;28;20200;-75
2022/07/11 03:44:28;;;;;;;20.17;18.48;;;;;;;12.47;100.00;99191.88;2082850;28;20248;-75
2022/07/11 03:45:31;;;;;;;20.40;18.40;;;;;;;12.45;100.00;99189.50;2091112;28;20183;-75
2022/07/11 03:46:32;;;;;;;20.33;18.27;;;;;;;12.42;100.00;99188.22;2091045;28;20207;-75
2022/07/11 03:47:36;;;;;;;19.30;17.80;;;;;;;12.41;100.00;99189.31;2082645;28;20196;-75
2022/07/11 03:48:37;;;;;;;20.10;18.20;;;;;;;12.41;100.00;99181.28;2083383;28;20249;-75
2022/07/11 03:49:38;;;;;;;20.70;18.53;;;;;;;12.42;100.00;99188.22;2083320;28;20341;-75
2022/07/11 03:50:40;;;;;;;19.98;18.05;;;;;;;12.44;100.00;99186.03;2083466;28;20577;-75
2022/07/11 03:51:42;;;;;;;20.35;18.52;;;;;;;12.44;100.00;99191.38;2083152;28;20225;-75
2022/07/11 03:52:43;;;;;;;20.20;18.30;;;;;;;12.45;100.00;99184.94;2074430;28;20251;-76
2022/07/11 03:53:45;;;;;;;19.58;17.92;;;;;;;12.47;100.00;99191.88;2083598;28;20259;-75
2022/07/11 03:54:46;;;;;;;20.83;18.85;;;;;;;12.47;100.00;99189.97;2083300;28;20249;-75
2022/07/11 03:55:48;;;;;;;20.53;18.40;;;;;;;12.48;100.00;99191.56;2083013;28;20187;-75
2022/07/11 03:56:50;;;;;;;19.83;18.17;;;;;;;12.47;100.00;99194.53;2081660;28;20317;-75
2022/07/11 03:57:55;;;;;;;19.88;18.27;;;;;;;12.47;100.00;99194.53;2082634;28;20250;-76
2022/07/11 03:58:57;;;;;;;20.33;18.40;;;;;;;12.47;100.00;99206.03;2074796;28;20192;-75
2022/07/11 03:59:58;;;;;;;19.58;17.80;;;;;;;12.47;100.00;99199.91;2082637;28;20271;-75
2022/07/11 04:01:02;;;;;;;19.38;17.98;;;;;;;12.46;100.00;99199.09;2083160;28;20191;-75
2022/07/11 04:02:04;;;;;;;20.02;18.33;;;;;;;12.53;100.00;99198.69;2082518;28;20674;-76
2022/07/11 04:03:07;;;;;;;19.55;17.92;;;;;;;12.50;100.00;99194.72;2082479;28;20242;-75
2022/07/11 04:04:08;;;;;;;19.45;17.77;;;;;;;12.49;100.00;99200.38;2082621;28;20358;-76
2022/07/11 04:05:10;;;;;;;20.43;18.60;;;;;;;12.48;100.00;99206.81;2082493;28;20203;-75
2022/07/11 04:06:10;;;;;;;21.05;19.00;;;;;;;12.47;100.00;99205.25;2081936;28;20250;-75
2022/07/11 04:07:13;;;;;;;19.60;17.70;;;;;;;12.47;100.00;99202.56;2082129;28;20218;-75
2022/07/11 04:08:15;;;;;;;19.85;18.15;;;;;;;12.44;100.00;99204.78;2082422;28;20686;-75
2022/07/11 04:09:17;;;;;;;19.90;18.30;;;;;;;12.47;100.00;99206.03;2082751;28;20249;-75
2022/07/11 04:10:17;;;;;;;20.15;18.30;;;;;;;12.47;100.00;99199.91;2083120;28;20215;-75
2022/07/11 04:11:21;;;;;;;19.57;17.80;;;;;;;12.55;100.00;99201.84;2083161;28;20202;-76
2022/07/11 04:12:22;;;;;;;19.70;18.08;;;;;;;12.54;100.00;99205.63;2082209;28;20564;-75
2022/07/11 04:13:23;;;;;;;19.53;17.77;;;;;;;12.53;100.00;99210.19;2082475;28;20279;-75
2022/07/11 04:14:26;;;;;;;19.88;18.15;;;;;;;12.52;100.00;99207.81;2082395;28;20227;-75
2022/07/11 04:15:27;;;;;;;19.58;17.98;;;;;;;12.50;100.00;99205.41;2074165;28;20718;-75
2022/07/11 04:16:28;;;;;;;19.60;17.90;;;;;;;12.54;100.00;99202.94;2082327;28;20261;-75
2022/07/11 04:17:31;;;;;;;20.13;18.40;;;;;;;12.56;100.00;99206.09;2083119;28;20200;-75
2022/07/11 04:18:33;;;;;;;19.80;18.20;;;;;;;12.51;100.00;99207.03;2083031;28;20188;-74
2022/07/11 04:19:34;;;;;;;19.70;17.92;;;;;;;12.53;100.00;99207.50;2082379;28;20758;-74
2022/07/11 04:20:35;;;;;;;19.93;18.03;;;;;;;12.54;100.00;99205.63;2082593;28;20595;-75
2022/07/11 04:21:37;;;;;;;19.17;17.65;;;;;;;12.52;100.00;99218.53;2083023;28;20261;-75
2022/07/11 04:22:39;;;;;;;20.30;18.20;;;;;;;12.43;100.00;99208.53;2082443;28;20218;-75
2022/07/11 04:23:40;;;;;;;20.33;18.50;;;;;;;12.40;100.00;99211.81;2082473;28;20188;-75
2022/07/11 04:24:42;;;;;;;21.48;19.63;;;;;;;12.38;100.00;99203.31;2082951;28;20557;-75
2022/07/11 04:25:44;;;;;;;23.25;19.90;;;;;;;12.37;100.00;99204.41;2083105;28;20519;-75
2022/07/11 04:26:44;;;;;;;24.67;19.52;;;;;;;12.34;100.00;99213.03;2082096;28;20207;-74
2022/07/11 04:27:46;;;;;;;21.27;19.30;;;;;;;12.33;100.00;99206.09;2074571;28;20196;-74
2022/07/11 04:28:47;;;;;;;21.30;18.80;;;;;;;12.30;100.00;99212.06;2082268;28;20218;-74
2022/07/11 04:29:50;;;;;;;20.07;18.37;;;;;;;12.33;100.00;99211.44;2082428;28;20182;-74
2022/07/11 04:30:52;;;;;;;20.13;18.17;;;;;;;12.32;100.00;99203.72;2083008;28;20654;-75
2022/07/11 04:31:53;;;;;;;20.85;18.83;;;;;;;12.33;100.00;99200.72;2081937;28;20298;-75
2022/07/11 04:32:57;;;;;;;19.73;17.97;;;;;;;12.33;100.00;99207.97;2082466;28;20199;-74
2022/07/11 04:33:58;;;;;;;19.90;17.95;;;;;;;12.37;100.00;99215.09;2083119;28;20257;-75
2022/07/11 04:35:00;;;;;;;19.93;18.23;;;;;;;12.37;100.00;99209.75;2081477;28;20214;-75
2022/07/11 04:36:01;;;;;;;19.98;18.33;;;;;;;12.39;100.00;99207.56;2082245;28;20196;-76
2022/07/11 04:37:04;;;;;;;20.33;18.27;;;;;;;12.42;100.00;99203.47;2074032;28;20209;-75
2022/07/11 04:38:06;;;;;;;20.08;18.10;;;;;;;12.48;100.00;99207.63;2082249;28;20196;-75
2022/07/11 04:39:09;;;;;;;18.92;17.35;;;;;;;12.48;100.00;99204.16;2082570;28;20207;-76
2022/07/11 04:40:12;;;;;;;19.10;17.60;;;;;;;12.50;100.00;99213.44;2082466;28;20184;-76
2022/07/11 04:41:13;;;;;;;19.25;17.50;;;;;;;12.52;100.00;99208.59;2082895;28;20291;-76
2022/07/11 04:42:14;;;;;;;20.97;17.90;;;;;;;12.57;100.00;99210.34;2073997;28;20193;-75
2022/07/11 04:43:17;;;;;;;20.10;17.77;;;;;;;12.56;100.00;99211.44;2082831;28;20229;-76